createdAt,value
2023-04-29T00:00:53.264Z,23.50
2023-04-29T00:01:53.285Z,21.00
2023-04-29T00:02:53.420Z,22.60
2023-04-29T00:03:53.410Z,22.50
2023-04-29T00:04:53.650Z,22.40
2023-04-29T00:05:53.283Z,23.00
2023-04-29T00:06:53.202Z,24.60
2023-04-29T00:07:53.226Z,22.10
2023-04-29T00:08:53.186Z,25.80
2023-04-29T00:09:53.411Z,25.80
2023-04-29T00:10:53.161Z,20.00
2023-04-29T00:11:53.165Z,21.20
2023-04-29T00:12:53.136Z,22.80
2023-04-29T00:13:53.127Z,25.90
2023-04-29T00:14:53.123Z,24.90
2023-04-29T00:15:53.111Z,25.20
2023-04-29T00:16:53.141Z,20.50
2023-04-29T00:17:53.114Z,24.40
2023-04-29T00:18:53.091Z,19.70
2023-04-29T00:19:53.255Z,22.20
2023-04-29T00:20:53.060Z,20.20
2023-04-29T00:21:53.047Z,20.10
2023-04-29T00:22:53.037Z,23.70
2023-04-29T00:23:53.033Z,20.70
2023-04-29T00:24:53.029Z,23.80
2023-04-29T00:25:53.003Z,24.40
2023-04-29T00:26:52.984Z,23.70
2023-04-29T00:27:53.981Z,22.90
2023-04-29T00:28:52.974Z,21.70
2023-04-29T00:29:53.300Z,23.90
2023-04-29T00:30:52.996Z,21.90
2023-04-29T00:31:52.955Z,19.10
2023-04-29T00:32:52.933Z,21.70
2023-04-29T00:33:52.934Z,20.50
2023-04-29T00:34:52.925Z,24.00
2023-04-29T00:35:52.903Z,24.70
2023-04-29T00:36:52.897Z,20.80
2023-04-29T00:37:52.906Z,20.00
2023-04-29T00:38:52.870Z,17.60
2023-04-29T00:39:53.288Z,22.80
2023-04-29T00:40:52.850Z,19.00
2023-04-29T00:41:52.851Z,20.30
2023-04-29T00:42:52.841Z,20.50
2023-04-29T00:43:52.830Z,21.70
2023-04-29T00:44:52.825Z,23.20
2023-04-29T00:45:52.855Z,24.10
2023-04-29T00:46:52.796Z,22.40
2023-04-29T00:47:53.030Z,24.20
2023-04-29T00:48:52.777Z,21.90
2023-04-29T00:49:53.107Z,22.20
2023-04-29T00:50:52.766Z,25.40
2023-04-29T00:51:52.746Z,22.00
2023-04-29T00:52:52.738Z,23.80
2023-04-29T00:53:52.728Z,24.40
2023-04-29T00:54:52.721Z,24.50
2023-04-29T00:55:52.730Z,31.00
2023-04-29T00:56:52.702Z,24.80
2023-04-29T00:57:52.742Z,26.90
2023-04-29T00:58:52.681Z,30.00
2023-04-29T00:59:52.918Z,26.90
2023-04-29T01:00:53.449Z,28.50
2023-04-29T01:01:52.797Z,28.40
2023-04-29T01:02:52.739Z,29.50
2023-04-29T01:03:52.798Z,24.80
2023-04-29T01:04:52.741Z,28.10
2023-04-29T01:05:52.648Z,28.20
2023-04-29T01:06:52.603Z,29.30
2023-04-29T01:07:52.600Z,28.40
2023-04-29T01:08:52.580Z,25.50
2023-04-29T01:09:52.778Z,25.30
2023-04-29T01:10:52.574Z,21.60
2023-04-29T01:11:52.549Z,28.20
2023-04-29T01:12:52.545Z,25.10
2023-04-29T01:13:52.534Z,27.70
2023-04-29T01:14:52.521Z,24.40
2023-04-29T01:15:52.553Z,28.60
2023-04-29T01:16:52.518Z,27.60
2023-04-29T01:17:52.536Z,20.60
2023-04-29T01:18:52.484Z,23.80
2023-04-29T01:19:52.730Z,23.50
2023-04-29T01:20:52.472Z,25.00
2023-04-29T01:21:52.449Z,24.70
2023-04-29T01:22:52.441Z,27.30
2023-04-29T01:23:52.427Z,28.90
2023-04-29T01:24:52.415Z,24.80
2023-04-29T01:25:52.421Z,27.40
2023-04-29T01:26:52.393Z,25.00
2023-04-29T01:27:52.386Z,20.30
2023-04-29T01:28:52.376Z,22.40
2023-04-29T01:29:52.566Z,23.80
2023-04-29T01:30:52.358Z,24.40
2023-04-29T01:31:52.391Z,24.10
2023-04-29T01:32:52.391Z,24.10
2023-04-29T01:33:52.339Z,24.00
2023-04-29T01:34:52.316Z,24.90
2023-04-29T01:35:52.316Z,24.70
2023-04-29T01:36:52.291Z,26.30
2023-04-29T01:37:52.284Z,28.30
2023-04-29T01:38:52.270Z,24.80
2023-04-29T01:39:52.464Z,25.70
2023-04-29T01:40:52.261Z,24.80
2023-04-29T01:41:52.237Z,21.20
2023-04-29T01:42:52.239Z,25.80
2023-04-29T01:43:52.219Z,25.20
2023-04-29T01:44:52.209Z,23.80
2023-04-29T01:45:52.207Z,23.90
2023-04-29T01:46:52.230Z,24.90
2023-04-29T01:47:52.376Z,25.60
2023-04-29T01:48:52.167Z,25.30
2023-04-29T01:49:52.263Z,22.10
2023-04-29T01:50:52.156Z,22.90
2023-04-29T01:51:52.139Z,25.50
2023-04-29T01:52:52.147Z,19.70
2023-04-29T01:53:52.120Z,18.30
2023-04-29T01:54:52.103Z,22.00
2023-04-29T01:55:52.103Z,22.50
2023-04-29T01:56:52.134Z,23.00
2023-04-29T01:57:53.071Z,20.60
2023-04-29T01:58:52.058Z,22.50
2023-04-29T01:59:52.192Z,24.20
2023-04-29T02:00:52.104Z,25.40
2023-04-29T02:01:52.030Z,26.50
2023-04-29T02:02:52.064Z,25.10
2023-04-29T02:03:52.128Z,25.10
2023-04-29T02:04:52.106Z,31.20
2023-04-29T02:05:52.026Z,30.10
2023-04-29T02:06:51.981Z,28.00
2023-04-29T02:07:51.969Z,24.40
2023-04-29T02:08:51.956Z,22.60
2023-04-29T02:09:52.067Z,24.90
2023-04-29T02:10:51.946Z,27.10
2023-04-29T02:11:51.925Z,30.70
2023-04-29T02:12:51.927Z,26.60
2023-04-29T02:13:51.905Z,29.40
2023-04-29T02:14:51.897Z,28.50
2023-04-29T02:15:51.897Z,33.00
2023-04-29T02:16:51.928Z,31.60
2023-04-29T02:17:51.883Z,31.00
2023-04-29T02:18:51.854Z,33.50
2023-04-29T02:19:52.018Z,32.70
2023-04-29T02:20:51.852Z,38.70
2023-04-29T02:21:51.838Z,32.60
2023-04-29T02:22:51.819Z,33.00
2023-04-29T02:23:51.832Z,33.10
2023-04-29T02:24:51.795Z,37.70
2023-04-29T02:25:51.802Z,36.40
2023-04-29T02:26:51.777Z,36.20
2023-04-29T02:27:51.777Z,34.40
2023-04-29T02:28:51.760Z,36.50
2023-04-29T02:29:52.054Z,38.90
2023-04-29T02:30:51.764Z,37.00
2023-04-29T02:31:51.761Z,36.50
2023-04-29T02:32:51.764Z,39.10
2023-04-29T02:33:51.712Z,40.00
2023-04-29T02:34:51.712Z,34.40
2023-04-29T02:35:51.712Z,38.80
2023-04-29T02:36:51.684Z,35.60
2023-04-29T02:37:51.669Z,37.00
2023-04-29T02:38:51.660Z,36.10
2023-04-29T02:39:51.801Z,38.20
2023-04-29T02:40:51.663Z,42.00
2023-04-29T02:41:51.635Z,38.40
2023-04-29T02:42:51.621Z,38.20
2023-04-29T02:43:51.618Z,42.70
2023-04-29T02:44:51.604Z,39.90
2023-04-29T02:45:51.645Z,42.70
2023-04-29T02:46:51.585Z,43.90
2023-04-29T02:47:51.603Z,42.50
2023-04-29T02:48:51.564Z,46.60
2023-04-29T02:49:51.694Z,43.20
2023-04-29T02:50:51.558Z,44.00
2023-04-29T02:51:51.537Z,47.70
2023-04-29T02:52:51.521Z,44.70
2023-04-29T02:53:51.515Z,43.70
2023-04-29T02:54:51.510Z,47.80
2023-04-29T02:55:51.512Z,50.70
2023-04-29T02:56:51.489Z,51.00
2023-04-29T02:57:51.487Z,52.10
2023-04-29T02:58:51.472Z,49.50
2023-04-29T02:59:51.626Z,50.50
2023-04-29T03:00:51.497Z,48.00
2023-04-29T03:01:51.440Z,48.60
2023-04-29T03:02:51.566Z,51.20
2023-04-29T03:03:51.727Z,47.10
2023-04-29T03:04:51.415Z,48.80
2023-04-29T03:05:51.430Z,44.00
2023-04-29T03:06:51.398Z,50.30
2023-04-29T03:07:51.378Z,47.00
2023-04-29T03:08:51.372Z,48.10
2023-04-29T03:09:51.520Z,47.00
2023-04-29T03:10:51.380Z,47.40
2023-04-29T03:11:51.348Z,46.30
2023-04-29T03:12:51.381Z,50.30
2023-04-29T03:13:51.327Z,48.00
2023-04-29T03:14:51.319Z,48.00
2023-04-29T03:15:51.305Z,48.20
2023-04-29T03:16:52.331Z,42.40
2023-04-29T03:17:51.340Z,47.40
2023-04-29T03:18:51.280Z,42.60
2023-04-29T03:19:51.583Z,46.20
2023-04-29T03:20:51.273Z,49.90
2023-04-29T03:21:53.324Z,47.50
2023-04-29T03:22:51.230Z,43.50
2023-04-29T03:23:51.221Z,43.30
2023-04-29T03:24:51.213Z,44.30
2023-04-29T03:25:51.231Z,45.80
2023-04-29T03:26:51.190Z,43.80
2023-04-29T03:27:51.173Z,43.80
2023-04-29T03:28:51.165Z,42.30
2023-04-29T03:29:51.353Z,45.50
2023-04-29T03:30:51.167Z,44.60
2023-04-29T03:31:51.186Z,42.60
2023-04-29T03:32:51.144Z,43.90
2023-04-29T03:33:51.122Z,42.90
2023-04-29T03:34:51.108Z,43.70
2023-04-29T03:35:51.112Z,47.00
2023-04-29T03:36:51.082Z,46.70
2023-04-29T03:37:51.072Z,48.50
2023-04-29T03:38:51.078Z,42.50
2023-04-29T03:39:51.335Z,42.70
2023-04-29T03:40:51.050Z,40.40
2023-04-29T03:41:51.028Z,46.20
2023-04-29T03:42:51.026Z,46.20
2023-04-29T03:43:51.026Z,45.80
2023-04-29T03:44:51.015Z,45.20
2023-04-29T03:45:51.046Z,42.60
2023-04-29T03:46:50.998Z,43.40
2023-04-29T03:47:50.981Z,42.10
2023-04-29T03:48:50.966Z,43.70
2023-04-29T03:49:51.274Z,41.50
2023-04-29T03:50:50.993Z,41.70
2023-04-29T03:51:50.937Z,40.30
2023-04-29T03:52:50.927Z,44.20
2023-04-29T03:53:50.906Z,40.40
2023-04-29T03:54:50.905Z,43.00
2023-04-29T03:55:50.903Z,41.10
2023-04-29T03:56:50.884Z,40.30
2023-04-29T03:57:50.870Z,41.60
2023-04-29T03:58:50.858Z,46.50
2023-04-29T03:59:51.446Z,43.60
2023-04-29T04:00:50.853Z,45.10
2023-04-29T04:01:50.843Z,44.30
2023-04-29T04:02:50.935Z,50.00
2023-04-29T04:03:50.855Z,47.50
2023-04-29T04:04:52.008Z,47.90
2023-04-29T04:05:50.803Z,45.70
2023-04-29T04:06:50.793Z,49.00
2023-04-29T04:07:50.770Z,43.40
2023-04-29T04:08:50.777Z,46.10
2023-04-29T04:09:51.111Z,44.70
2023-04-29T04:10:50.768Z,50.70
2023-04-29T04:11:50.738Z,45.10
2023-04-29T04:12:50.728Z,45.60
2023-04-29T04:13:50.712Z,48.20
2023-04-29T04:14:50.707Z,45.50
2023-04-29T04:15:50.720Z,46.00
2023-04-29T04:16:50.687Z,47.90
2023-04-29T04:17:50.730Z,52.00
2023-04-29T04:18:50.667Z,46.40
2023-04-29T04:19:50.776Z,48.70
2023-04-29T04:20:50.659Z,46.70
2023-04-29T04:21:50.631Z,51.30
2023-04-29T04:22:50.642Z,50.00
2023-04-29T04:23:50.619Z,47.70
2023-04-29T04:24:50.605Z,53.40
2023-04-29T04:25:50.608Z,51.90
2023-04-29T04:26:50.588Z,43.70
2023-04-29T04:27:50.572Z,47.10
2023-04-29T04:28:50.567Z,48.70
2023-04-29T04:29:50.706Z,44.60
2023-04-29T04:30:50.559Z,46.10
2023-04-29T04:31:50.565Z,46.50
2023-04-29T04:32:50.534Z,42.10
2023-04-29T04:33:50.514Z,45.80
2023-04-29T04:34:50.504Z,42.60
2023-04-29T04:35:50.519Z,37.30
2023-04-29T04:36:50.478Z,40.90
2023-04-29T04:37:50.474Z,41.60
2023-04-29T04:38:50.475Z,45.30
2023-04-29T04:39:50.676Z,40.70
2023-04-29T04:40:50.470Z,37.70
2023-04-29T04:41:50.443Z,43.60
2023-04-29T04:42:50.455Z,34.80
2023-04-29T04:43:50.424Z,35.10
2023-04-29T04:44:50.404Z,36.40
2023-04-29T04:45:50.444Z,35.90
2023-04-29T04:46:50.380Z,40.00
2023-04-29T04:47:50.455Z,36.10
2023-04-29T04:48:50.366Z,34.50
2023-04-29T04:49:50.408Z,36.40
2023-04-29T04:50:50.360Z,37.10
2023-04-29T04:51:50.341Z,40.20
2023-04-29T04:52:50.325Z,35.80
2023-04-29T04:53:50.323Z,35.60
2023-04-29T04:54:50.309Z,33.90
2023-04-29T04:55:50.309Z,31.30
2023-04-29T04:56:50.293Z,31.70
2023-04-29T04:57:50.281Z,30.90
2023-04-29T04:58:50.304Z,26.00
2023-04-29T04:59:50.322Z,26.60
2023-04-29T05:00:50.288Z,27.30
2023-04-29T05:01:50.234Z,30.30
2023-04-29T05:02:50.371Z,29.20
2023-04-29T05:03:50.336Z,29.90
2023-04-29T05:04:50.202Z,30.20
2023-04-29T05:05:50.207Z,33.00
2023-04-29T05:06:50.181Z,32.30
2023-04-29T05:07:50.169Z,32.80
2023-04-29T05:08:50.169Z,31.60
2023-04-29T05:09:50.335Z,34.90
2023-04-29T05:10:50.155Z,38.50
2023-04-29T05:11:50.135Z,29.90
2023-04-29T05:12:50.141Z,34.00
2023-04-29T05:13:50.125Z,30.70
2023-04-29T05:14:50.101Z,34.80
2023-04-29T05:15:50.107Z,37.70
2023-04-29T05:16:50.084Z,38.10
2023-04-29T05:17:50.101Z,32.90
2023-04-29T05:18:50.072Z,38.30
2023-04-29T05:19:50.057Z,36.10
2023-04-29T05:20:50.059Z,35.70
2023-04-29T05:21:50.031Z,35.10
2023-04-29T05:22:50.016Z,37.50
2023-04-29T05:23:50.012Z,35.50
2023-04-29T05:24:49.999Z,36.90
2023-04-29T05:25:50.033Z,41.50
2023-04-29T05:26:49.975Z,44.30
2023-04-29T05:27:49.984Z,37.60
2023-04-29T05:28:49.959Z,39.70
2023-04-29T05:29:50.011Z,38.60
2023-04-29T05:30:49.994Z,41.10
2023-04-29T05:31:49.927Z,40.50
2023-04-29T05:32:49.970Z,50.70
2023-04-29T05:33:49.908Z,48.00
2023-04-29T05:34:49.900Z,44.90
2023-04-29T05:35:49.898Z,44.30
2023-04-29T05:36:49.884Z,44.20
2023-04-29T05:37:49.885Z,45.80
2023-04-29T05:38:49.858Z,45.80
2023-04-29T05:39:49.905Z,48.30
2023-04-29T05:40:49.848Z,45.40
2023-04-29T05:41:49.870Z,52.50
2023-04-29T05:42:49.826Z,48.30
2023-04-29T05:43:49.874Z,53.50
2023-04-29T05:44:49.800Z,49.00
2023-04-29T05:45:49.842Z,48.30
2023-04-29T05:46:49.777Z,50.70
2023-04-29T05:47:49.810Z,46.70
2023-04-29T05:48:49.753Z,49.40
2023-04-29T05:49:49.797Z,45.10
2023-04-29T05:50:49.746Z,49.60
2023-04-29T05:51:49.727Z,48.60
2023-04-29T05:52:49.717Z,50.20
2023-04-29T05:53:49.706Z,49.50
2023-04-29T05:54:49.696Z,51.00
2023-04-29T05:55:51.107Z,47.80
2023-04-29T05:56:49.679Z,41.10
2023-04-29T05:57:49.666Z,38.80
2023-04-29T05:58:49.651Z,39.40
2023-04-29T05:59:49.645Z,41.30
2023-04-29T06:00:49.678Z,42.40
2023-04-29T06:01:49.624Z,37.90
2023-04-29T06:02:58.218Z,41.70
2023-04-29T06:03:51.775Z,39.40
2023-04-29T06:04:49.826Z,39.20
2023-04-29T06:05:49.855Z,38.00
2023-04-29T06:06:49.572Z,44.70
2023-04-29T06:07:49.558Z,43.00
2023-04-29T06:08:49.567Z,39.60
2023-04-29T06:09:49.545Z,45.00
2023-04-29T06:10:49.545Z,46.70
2023-04-29T06:11:49.524Z,47.00
2023-04-29T06:12:49.515Z,50.00
2023-04-29T06:13:49.509Z,46.40
2023-04-29T06:14:49.503Z,51.20
2023-04-29T06:15:49.509Z,47.10
2023-04-29T06:16:49.480Z,48.10
2023-04-29T06:17:49.480Z,52.40
2023-04-29T06:18:49.461Z,46.40
2023-04-29T06:19:49.457Z,41.90
2023-04-29T06:20:49.457Z,44.80
2023-04-29T06:21:49.436Z,39.70
2023-04-29T06:22:49.420Z,39.80
2023-04-29T06:23:49.407Z,40.70
2023-04-29T06:24:49.400Z,39.00
2023-04-29T06:25:51.623Z,41.90
2023-04-29T06:26:49.385Z,41.50
2023-04-29T06:27:49.380Z,39.10
2023-04-29T06:28:49.354Z,44.50
2023-04-29T06:29:49.341Z,44.00
2023-04-29T06:30:49.343Z,48.80
2023-04-29T06:31:49.383Z,43.60
2023-04-29T06:32:49.328Z,48.50
2023-04-29T06:33:49.304Z,48.50
2023-04-29T06:34:49.292Z,45.00
2023-04-29T06:35:49.289Z,53.30
2023-04-29T06:36:49.285Z,51.70
2023-04-29T06:37:49.296Z,49.20
2023-04-29T06:38:49.249Z,50.40
2023-04-29T06:39:49.278Z,49.30
2023-04-29T06:40:49.237Z,52.70
2023-04-29T06:41:49.247Z,56.00
2023-04-29T06:42:49.214Z,56.00
2023-04-29T06:43:49.206Z,57.60
2023-04-29T06:44:49.200Z,52.60
2023-04-29T06:45:49.192Z,53.50
2023-04-29T06:46:49.243Z,51.20
2023-04-29T06:47:49.190Z,55.40
2023-04-29T06:48:49.159Z,54.80
2023-04-29T06:49:49.149Z,48.20
2023-04-29T06:50:49.138Z,54.10
2023-04-29T06:51:49.142Z,57.90
2023-04-29T06:52:49.121Z,55.00
2023-04-29T06:53:49.109Z,56.50
2023-04-29T06:54:49.095Z,55.90
2023-04-29T06:55:49.097Z,54.50
2023-04-29T06:56:49.083Z,52.00
2023-04-29T06:57:49.079Z,55.80
2023-04-29T06:58:49.060Z,60.30
2023-04-29T06:59:49.053Z,56.50
2023-04-29T07:00:49.125Z,55.90
2023-04-29T07:01:49.904Z,49.90
2023-04-29T07:02:50.074Z,49.30
2023-04-29T07:03:49.445Z,46.80
2023-04-29T07:04:49.115Z,41.90
2023-04-29T07:05:49.001Z,45.60
2023-04-29T07:06:48.973Z,44.10
2023-04-29T07:07:48.974Z,50.40
2023-04-29T07:08:48.959Z,38.00
2023-04-29T07:09:48.958Z,42.40
2023-04-29T07:10:48.957Z,43.90
2023-04-29T07:11:48.940Z,37.10
2023-04-29T07:12:48.917Z,41.40
2023-04-29T07:13:48.902Z,39.70
2023-04-29T07:14:48.910Z,40.20
2023-04-29T07:15:48.903Z,41.20
2023-04-29T07:16:48.921Z,36.80
2023-04-29T07:17:48.883Z,36.10
2023-04-29T07:18:48.852Z,39.00
2023-04-29T07:19:48.850Z,38.00
2023-04-29T07:20:48.843Z,37.10
2023-04-29T07:21:48.821Z,34.90
2023-04-29T07:22:48.821Z,35.00
2023-04-29T07:23:48.804Z,36.20
2023-04-29T07:24:48.798Z,32.40
2023-04-29T07:25:48.811Z,34.00
2023-04-29T07:26:48.777Z,31.80
2023-04-29T07:27:48.769Z,35.20
2023-04-29T07:28:48.754Z,38.50
2023-04-29T07:29:48.746Z,32.40
2023-04-29T07:30:48.738Z,35.30
2023-04-29T07:31:48.735Z,39.80
2023-04-29T07:32:48.776Z,37.90
2023-04-29T07:33:48.702Z,36.90
2023-04-29T07:34:48.734Z,37.30
2023-04-29T07:35:48.683Z,33.70
2023-04-29T07:36:48.684Z,33.80
2023-04-29T07:37:48.658Z,33.70
2023-04-29T07:38:48.658Z,35.50
2023-04-29T07:39:48.645Z,33.40
2023-04-29T07:40:48.634Z,34.80
2023-04-29T07:41:48.630Z,29.60
2023-04-29T07:42:48.621Z,33.10
2023-04-29T07:43:48.612Z,32.40
2023-04-29T07:44:48.593Z,32.40
2023-04-29T07:45:48.613Z,34.20
2023-04-29T07:46:48.630Z,31.10
2023-04-29T07:47:48.620Z,28.30
2023-04-29T07:48:48.553Z,29.00
2023-04-29T07:49:48.540Z,28.00
2023-04-29T07:50:48.528Z,26.30
2023-04-29T07:51:48.529Z,35.10
2023-04-29T07:52:48.525Z,33.00
2023-04-29T07:53:48.494Z,25.80
2023-04-29T07:54:48.491Z,26.10
2023-04-29T07:55:48.494Z,30.00
2023-04-29T07:56:48.481Z,24.50
2023-04-29T07:57:48.457Z,23.10
2023-04-29T07:58:48.449Z,23.70
2023-04-29T07:59:48.454Z,26.50
2023-04-29T08:00:48.430Z,27.30
2023-04-29T08:01:48.436Z,23.90
2023-04-29T08:02:48.449Z,24.20
2023-04-29T08:03:48.536Z,26.80
2023-04-29T08:04:48.744Z,25.60
2023-04-29T08:05:49.457Z,24.40
2023-04-29T08:06:48.376Z,23.10
2023-04-29T08:07:48.357Z,30.80
2023-04-29T08:08:48.350Z,25.30
2023-04-29T08:09:48.333Z,26.40
2023-04-29T08:10:48.316Z,22.10
2023-04-29T08:11:49.326Z,24.60
2023-04-29T08:12:48.309Z,22.10
2023-04-29T08:13:48.318Z,23.00
2023-04-29T08:14:48.284Z,24.80
2023-04-29T08:15:48.309Z,25.60
2023-04-29T08:16:48.292Z,21.50
2023-04-29T08:17:48.302Z,24.60
2023-04-29T08:18:48.245Z,24.10
2023-04-29T08:19:48.234Z,22.60
2023-04-29T08:20:48.226Z,25.50
2023-04-29T08:21:48.221Z,23.60
2023-04-29T08:22:48.217Z,26.30
2023-04-29T08:23:48.206Z,22.40
2023-04-29T08:24:48.186Z,24.70
2023-04-29T08:25:48.175Z,23.90
2023-04-29T08:26:48.370Z,26.30
2023-04-29T08:27:48.159Z,23.50
2023-04-29T08:28:48.157Z,25.60
2023-04-29T08:29:48.142Z,23.90
2023-04-29T08:30:48.120Z,24.80
2023-04-29T08:31:48.136Z,24.40
2023-04-29T08:32:48.165Z,25.20
2023-04-29T08:33:48.094Z,25.30
2023-04-29T08:34:48.081Z,21.60
2023-04-29T08:35:48.080Z,24.10
2023-04-29T08:36:48.069Z,25.70
2023-04-29T08:37:48.047Z,29.90
2023-04-29T08:38:48.045Z,23.80
2023-04-29T08:39:48.057Z,24.40
2023-04-29T08:40:48.017Z,27.60
2023-04-29T08:41:48.034Z,24.00
2023-04-29T08:42:49.060Z,24.80
2023-04-29T08:43:48.990Z,24.80
2023-04-29T08:44:47.983Z,28.50
2023-04-29T08:45:47.977Z,25.10
2023-04-29T08:46:47.971Z,25.40
2023-04-29T08:47:48.037Z,25.40
2023-04-29T08:48:48.044Z,24.70
2023-04-29T08:49:47.926Z,24.90
2023-04-29T08:50:47.907Z,23.10
2023-04-29T08:51:47.915Z,24.10
2023-04-29T08:52:47.894Z,24.70
2023-04-29T08:53:48.301Z,24.20
2023-04-29T08:54:47.878Z,24.00
2023-04-29T08:55:47.864Z,23.30
2023-04-29T08:56:47.867Z,24.30
2023-04-29T08:57:47.842Z,27.40
2023-04-29T08:58:47.833Z,26.00
2023-04-29T08:59:47.821Z,26.00
2023-04-29T09:00:47.936Z,26.20
2023-04-29T09:01:47.808Z,27.10
2023-04-29T09:02:47.802Z,28.70
2023-04-29T09:03:47.918Z,28.80
2023-04-29T09:04:47.768Z,29.60
2023-04-29T09:05:47.754Z,26.00
2023-04-29T09:06:47.792Z,27.90
2023-04-29T09:07:47.744Z,27.60
2023-04-29T09:08:47.736Z,26.80
2023-04-29T09:09:47.722Z,24.10
2023-04-29T09:10:47.700Z,25.30
2023-04-29T09:12:19.619Z,25.80
2023-04-29T09:12:47.689Z,28.90
2023-04-29T09:13:47.676Z,25.50
2023-04-29T09:14:47.661Z,28.40
2023-04-29T09:15:47.660Z,26.00
2023-04-29T09:16:47.776Z,29.10
2023-04-29T09:17:47.662Z,24.00
2023-04-29T09:18:47.627Z,25.60
2023-04-29T09:19:47.614Z,24.40
2023-04-29T09:20:47.621Z,26.50
2023-04-29T09:21:47.607Z,26.30
2023-04-29T09:22:47.585Z,26.60
2023-04-29T09:23:47.573Z,26.80
2023-04-29T09:24:47.572Z,29.50
2023-04-29T09:25:47.560Z,27.90
2023-04-29T09:26:48.183Z,28.80
2023-04-29T09:27:47.545Z,27.40
2023-04-29T09:28:47.537Z,27.70
2023-04-29T09:29:47.518Z,25.30
2023-04-29T09:30:47.518Z,26.80
2023-04-29T09:31:47.527Z,30.90
2023-04-29T09:32:47.577Z,28.30
2023-04-29T09:33:47.469Z,28.10
2023-04-29T09:34:47.485Z,29.70
2023-04-29T09:35:47.477Z,28.80
2023-04-29T09:36:47.452Z,28.00
2023-04-29T09:37:47.434Z,30.00
2023-04-29T09:38:47.419Z,30.10
2023-04-29T09:39:47.425Z,30.40
2023-04-29T09:40:58.814Z,28.00
2023-04-29T09:41:49.397Z,29.70
2023-04-29T09:42:47.386Z,27.80
2023-04-29T09:43:47.373Z,29.10
2023-04-29T09:44:47.361Z,27.00
2023-04-29T09:45:47.449Z,28.70
2023-04-29T09:46:47.345Z,28.50
2023-04-29T09:47:47.375Z,30.30
2023-04-29T09:48:47.318Z,30.10
2023-04-29T09:49:47.305Z,33.10
2023-04-29T09:50:47.309Z,29.30
2023-04-29T09:51:47.286Z,29.80
2023-04-29T09:52:47.278Z,31.90
2023-04-29T09:53:47.265Z,31.20
2023-04-29T09:54:47.268Z,33.10
2023-04-29T09:55:47.257Z,32.50
2023-04-29T09:56:47.233Z,31.60
2023-04-29T09:57:47.223Z,32.40
2023-04-29T09:58:47.217Z,33.40
2023-04-29T09:59:47.200Z,32.40
2023-04-29T10:00:47.210Z,33.00
2023-04-29T10:01:47.230Z,36.20
2023-04-29T10:02:47.337Z,36.30
2023-04-29T10:03:47.279Z,35.30
2023-04-29T10:04:47.319Z,34.80
2023-04-29T10:05:47.170Z,38.60
2023-04-29T10:06:47.134Z,36.70
2023-04-29T10:07:47.147Z,36.90
2023-04-29T10:08:47.115Z,38.10
2023-04-29T10:09:47.108Z,39.50
2023-04-29T10:10:47.102Z,39.90
2023-04-29T10:11:47.096Z,40.40
2023-04-29T10:12:47.073Z,39.70
2023-04-29T10:13:47.071Z,43.90
2023-04-29T10:14:47.045Z,39.00
2023-04-29T10:15:47.119Z,39.50
2023-04-29T10:16:47.034Z,42.40
2023-04-29T10:17:47.016Z,39.30
2023-04-29T10:18:47.066Z,40.90
2023-04-29T10:19:47.001Z,39.60
2023-04-29T10:20:46.987Z,40.80
2023-04-29T10:21:48.674Z,38.30
2023-04-29T10:22:46.967Z,41.40
2023-04-29T10:23:46.969Z,38.30
2023-04-29T10:24:46.965Z,42.30
2023-04-29T10:25:46.953Z,41.30
2023-04-29T10:26:46.923Z,39.20
2023-04-29T10:27:46.910Z,42.40
2023-04-29T10:28:46.903Z,40.60
2023-04-29T10:29:46.892Z,50.20
2023-04-29T10:30:46.884Z,40.90
2023-04-29T10:31:47.064Z,38.70
2023-04-29T10:32:51.169Z,37.50
2023-04-29T10:33:48.848Z,41.00
2023-04-29T10:34:46.842Z,40.40
2023-04-29T10:35:46.829Z,45.10
2023-04-29T10:36:46.831Z,40.10
2023-04-29T10:37:46.812Z,41.50
2023-04-29T10:38:46.799Z,42.20
2023-04-29T10:39:46.790Z,38.70
2023-04-29T10:40:46.843Z,41.70
2023-04-29T10:41:46.806Z,42.80
2023-04-29T10:42:46.758Z,38.80
2023-04-29T10:43:46.743Z,41.20
2023-04-29T10:44:46.759Z,41.00
2023-04-29T10:45:46.736Z,38.50
2023-04-29T10:46:46.773Z,41.50
2023-04-29T10:47:46.784Z,40.60
2023-04-29T10:48:46.691Z,38.00
2023-04-29T10:49:46.680Z,37.20
2023-04-29T10:50:46.670Z,37.70
2023-04-29T10:51:46.673Z,38.40
2023-04-29T10:52:46.657Z,41.30
2023-04-29T10:53:46.652Z,41.30
2023-04-29T10:54:46.633Z,35.90
2023-04-29T10:55:46.617Z,39.70
2023-04-29T10:56:46.611Z,38.10
2023-04-29T10:57:46.611Z,38.00
2023-04-29T10:58:46.644Z,37.90
2023-04-29T10:59:46.581Z,38.40
2023-04-29T11:00:46.583Z,36.80
2023-04-29T11:01:46.570Z,38.10
2023-04-29T11:02:46.589Z,37.30
2023-04-29T11:03:46.706Z,42.10
2023-04-29T11:04:46.535Z,39.10
2023-04-29T11:05:46.511Z,35.90
2023-04-29T11:06:46.511Z,42.10
2023-04-29T11:07:46.496Z,40.50
2023-04-29T11:08:46.493Z,41.70
2023-04-29T11:09:46.497Z,36.90
2023-04-29T11:10:46.470Z,41.70
2023-04-29T11:11:46.527Z,37.50
2023-04-29T11:12:46.448Z,37.60
2023-04-29T11:13:46.444Z,40.00
2023-04-29T11:14:46.429Z,37.80
2023-04-29T11:15:46.421Z,38.40
2023-04-29T11:16:46.444Z,34.20
2023-04-29T11:17:46.430Z,38.00
2023-04-29T11:18:46.383Z,38.30
2023-04-29T11:19:46.598Z,34.20
2023-04-29T11:20:46.392Z,35.90
2023-04-29T11:21:46.370Z,37.70
2023-04-29T11:22:46.349Z,37.70
2023-04-29T11:23:46.334Z,42.10
2023-04-29T11:24:46.327Z,46.80
2023-04-29T11:25:46.326Z,37.60
2023-04-29T11:26:46.411Z,38.80
2023-04-29T11:27:46.295Z,39.60
2023-04-29T11:28:46.284Z,35.60
2023-04-29T11:29:46.323Z,35.30
2023-04-29T11:30:46.265Z,36.30
2023-04-29T11:31:46.324Z,36.70
2023-04-29T11:32:46.295Z,35.90
2023-04-29T11:33:46.232Z,39.30
2023-04-29T11:34:46.219Z,38.60
2023-04-29T11:35:46.200Z,37.60
2023-04-29T11:36:47.629Z,38.50
2023-04-29T11:37:47.214Z,32.00
2023-04-29T11:38:46.178Z,37.70
2023-04-29T11:39:46.170Z,33.70
2023-04-29T11:40:46.180Z,36.20
2023-04-29T11:41:47.152Z,36.00
2023-04-29T11:42:46.171Z,36.60
2023-04-29T11:43:46.157Z,38.60
2023-04-29T11:44:46.111Z,34.50
2023-04-29T11:45:46.127Z,33.00
2023-04-29T11:46:46.101Z,30.60
2023-04-29T11:47:46.138Z,40.40
2023-04-29T11:48:46.072Z,35.40
2023-04-29T11:49:46.067Z,30.60
2023-04-29T11:50:46.054Z,35.20
2023-04-29T11:51:46.100Z,35.50
2023-04-29T11:52:46.031Z,35.00
2023-04-29T11:53:46.024Z,31.90
2023-04-29T11:54:46.013Z,35.70
2023-04-29T11:55:46.005Z,33.90
2023-04-29T11:56:46.005Z,35.80
2023-04-29T11:57:45.984Z,36.00
2023-04-29T11:58:45.971Z,34.90
2023-04-29T11:59:45.954Z,33.70
2023-04-29T12:00:45.956Z,34.80
2023-04-29T12:01:45.956Z,33.70
2023-04-29T12:02:46.017Z,32.10
2023-04-29T12:03:46.073Z,34.10
2023-04-29T12:04:45.975Z,33.30
2023-04-29T12:05:45.951Z,33.80
2023-04-29T12:06:45.915Z,33.00
2023-04-29T12:07:45.901Z,29.60
2023-04-29T12:08:45.876Z,34.60
2023-04-29T12:09:45.866Z,33.60
2023-04-29T12:10:45.848Z,29.60
2023-04-29T12:11:45.851Z,29.40
2023-04-29T12:12:45.827Z,27.60
2023-04-29T12:13:45.817Z,36.60
2023-04-29T12:14:45.811Z,34.10
2023-04-29T12:15:45.848Z,32.50
2023-04-29T12:16:45.802Z,30.60
2023-04-29T12:17:45.802Z,28.10
2023-04-29T12:18:45.767Z,30.90
2023-04-29T12:19:45.769Z,31.00
2023-04-29T12:20:45.748Z,33.00
2023-04-29T12:21:45.751Z,34.30
2023-04-29T12:22:45.732Z,34.70
2023-04-29T12:23:45.713Z,36.80
2023-04-29T12:24:45.702Z,27.90
2023-04-29T12:25:45.689Z,31.60
2023-04-29T12:26:45.701Z,31.40
2023-04-29T12:27:45.673Z,31.60
2023-04-29T12:28:45.665Z,31.10
2023-04-29T12:29:45.650Z,33.80
2023-04-29T12:30:45.642Z,29.00
2023-04-29T12:31:45.728Z,31.80
2023-04-29T12:32:45.710Z,33.90
2023-04-29T12:33:45.606Z,37.20
2023-04-29T12:34:45.600Z,32.40
2023-04-29T12:35:45.590Z,33.90
2023-04-29T12:36:45.576Z,30.80
2023-04-29T12:37:45.578Z,28.50
2023-04-29T12:38:45.553Z,32.20
2023-04-29T12:39:45.544Z,30.40
2023-04-29T12:40:45.538Z,33.50
2023-04-29T12:41:45.524Z,33.10
2023-04-29T12:42:45.544Z,29.60
2023-04-29T12:43:45.503Z,31.60
2023-04-29T12:44:45.570Z,31.40
2023-04-29T12:45:45.480Z,29.70
2023-04-29T12:46:45.558Z,30.80
2023-04-29T12:47:45.526Z,30.50
2023-04-29T12:48:45.445Z,27.10
2023-04-29T12:49:45.464Z,27.90
2023-04-29T12:50:45.428Z,29.80
2023-04-29T12:51:45.438Z,31.20
2023-04-29T12:52:45.421Z,29.80